createdAt,value
2022-08-07T00:01:44.490Z,16.20
2022-08-07T00:04:05.808Z,16.20
2022-08-07T00:06:33.869Z,16.10
2022-08-07T00:09:16.675Z,16.00
2022-08-07T00:11:55.774Z,15.90
2022-08-07T00:14:29.804Z,15.90
2022-08-07T00:16:59.960Z,15.90
2022-08-07T00:19:59.873Z,15.80
2022-08-07T00:22:24.500Z,15.70
2022-08-07T00:25:07.443Z,15.60
2022-08-07T00:27:53.153Z,15.40
2022-08-07T00:30:21.735Z,15.30
2022-08-07T00:32:56.714Z,15.20
2022-08-07T00:35:25.046Z,15.10
2022-08-07T00:37:52.232Z,15.20
2022-08-07T00:40:36.664Z,15.20
2022-08-07T00:43:09.783Z,15.10
2022-08-07T00:45:41.649Z,15.00
2022-08-07T00:48:13.409Z,15.00
2022-08-07T00:50:43.684Z,15.00
2022-08-07T00:53:18.473Z,15.00
2022-08-07T00:56:00.438Z,15.00
2022-08-07T00:58:35.677Z,14.90
2022-08-07T01:01:07.509Z,14.90
2022-08-07T01:03:56.150Z,14.80
2022-08-07T01:06:22.861Z,14.80
2022-08-07T01:08:55.742Z,14.80
2022-08-07T01:12:08.933Z,14.80
2022-08-07T01:14:21.123Z,14.80
2022-08-07T01:17:00.153Z,14.70
2022-08-07T01:19:32.920Z,14.60
2022-08-07T01:22:08.664Z,14.60
2022-08-07T01:24:39.325Z,14.50
2022-08-07T01:27:19.389Z,14.30
2022-08-07T01:29:50.678Z,14.30
2022-08-07T01:32:22.528Z,14.30
2022-08-07T01:34:51.478Z,14.20
2022-08-07T01:37:20.578Z,14.10
2022-08-07T01:39:48.316Z,14.10
2022-08-07T01:42:40.200Z,13.90
2022-08-07T01:45:05.401Z,13.90
2022-08-07T01:48:19.950Z,13.80
2022-08-07T01:50:30.955Z,13.80
2022-08-07T01:53:00.195Z,13.80
2022-08-07T01:55:33.642Z,13.80
2022-08-07T01:58:27.437Z,13.90
2022-08-07T02:01:25.629Z,13.90
2022-08-07T02:03:51.688Z,13.80
2022-08-07T02:06:30.683Z,13.70
2022-08-07T02:09:03.680Z,13.70
2022-08-07T02:12:02.729Z,13.70
2022-08-07T02:14:35.711Z,13.60
2022-08-07T02:17:03.677Z,13.50
2022-08-07T02:20:07.688Z,13.50
2022-08-07T02:22:25.858Z,13.50
2022-08-07T02:24:54.734Z,13.50
2022-08-07T02:27:23.900Z,13.40
2022-08-07T02:29:54.532Z,13.40
2022-08-07T02:32:26.953Z,13.40
2022-08-07T02:34:58.262Z,13.40
2022-08-07T02:37:26.736Z,13.40
2022-08-07T02:40:02.316Z,13.40
2022-08-07T02:42:42.750Z,13.40
2022-08-07T02:45:58.528Z,13.40
2022-08-07T02:48:01.834Z,13.40
2022-08-07T02:50:30.807Z,13.40
2022-08-07T02:53:10.778Z,13.40
2022-08-07T02:56:04.054Z,13.30
2022-08-07T02:58:33.500Z,13.30
2022-08-07T03:01:03.088Z,13.30
2022-08-07T03:03:49.459Z,13.20
2022-08-07T03:06:26.132Z,13.20
2022-08-07T03:09:04.129Z,13.10
2022-08-07T03:11:38.506Z,13.10
2022-08-07T03:14:06.640Z,13.20
2022-08-07T03:16:34.930Z,13.20
2022-08-07T03:19:02.432Z,13.10
2022-08-07T03:21:33.145Z,13.10
2022-08-07T03:24:20.685Z,13.10
2022-08-07T03:26:58.074Z,13.10
2022-08-07T03:29:29.536Z,13.10
2022-08-07T03:31:57.179Z,13.10
2022-08-07T03:34:27.775Z,13.00
2022-08-07T03:36:57.305Z,13.00
2022-08-07T03:40:00.021Z,13.00
2022-08-07T03:42:13.204Z,13.00
2022-08-07T03:44:40.816Z,12.90
2022-08-07T03:47:13.345Z,12.90
2022-08-07T03:49:47.705Z,13.00
2022-08-07T03:52:22.741Z,12.90
2022-08-07T03:55:07.170Z,12.80
2022-08-07T03:58:35.020Z,12.70
2022-08-07T04:00:30.525Z,12.70
2022-08-07T04:03:04.288Z,12.60
2022-08-07T04:05:40.603Z,12.60
2022-08-07T04:08:16.118Z,12.60
2022-08-07T04:10:54.289Z,12.60
2022-08-07T04:14:09.363Z,12.60
2022-08-07T04:16:31.298Z,12.50
2022-08-07T04:19:01.754Z,12.60
2022-08-07T04:21:33.342Z,12.50
2022-08-07T04:24:07.450Z,12.50
2022-08-07T04:26:34.872Z,12.40
2022-08-07T04:29:03.153Z,12.40
2022-08-07T04:31:38.992Z,12.50
2022-08-07T04:34:24.323Z,12.50
2022-08-07T04:37:00.881Z,12.50
2022-08-07T04:39:35.569Z,12.50
2022-08-07T04:42:03.936Z,12.50
2022-08-07T04:44:31.046Z,12.50
2022-08-07T04:47:11.509Z,12.40
2022-08-07T04:50:04.837Z,12.30
2022-08-07T04:52:37.486Z,12.40
2022-08-07T04:58:14.767Z,12.50
2022-08-07T04:59:18.417Z,12.50
2022-08-07T05:01:37.688Z,12.50
2022-08-07T05:04:17.108Z,12.60
2022-08-07T05:07:00.595Z,12.60
2022-08-07T05:09:51.883Z,12.70
2022-08-07T05:12:26.963Z,12.70
2022-08-07T05:15:15.995Z,12.70
2022-08-07T05:17:57.099Z,12.80
2022-08-07T05:20:33.675Z,12.80
2022-08-07T05:23:15.608Z,12.80
2022-08-07T05:26:10.688Z,12.80
2022-08-07T05:28:35.021Z,12.90
2022-08-07T05:31:03.637Z,12.90
2022-08-07T05:33:35.475Z,12.90
2022-08-07T05:36:06.973Z,13.00
2022-08-07T05:38:59.823Z,13.00
2022-08-07T05:42:00.368Z,13.10
2022-08-07T05:44:15.692Z,13.10
2022-08-07T05:46:58.068Z,13.30
2022-08-07T05:49:27.458Z,13.40
2022-08-07T05:52:11.644Z,13.50
2022-08-07T05:54:53.323Z,13.80
2022-08-07T05:57:26.766Z,14.00
2022-08-07T06:00:00.201Z,14.10
2022-08-07T06:02:31.385Z,14.20
2022-08-07T06:05:05.039Z,14.40
2022-08-07T06:08:09.274Z,14.60
2022-08-07T06:10:21.702Z,14.70
2022-08-07T06:12:49.637Z,14.90
2022-08-07T06:15:19.848Z,15.00
2022-08-07T06:17:53.471Z,15.10
2022-08-07T06:20:25.616Z,15.20
2022-08-07T06:23:24.837Z,15.30
2022-08-07T06:25:57.075Z,15.40
2022-08-07T06:28:27.681Z,15.50
2022-08-07T06:30:55.796Z,15.60
2022-08-07T06:33:24.335Z,15.70
2022-08-07T06:36:06.518Z,15.70
2022-08-07T06:38:39.100Z,15.80
2022-08-07T06:41:47.539Z,15.90
2022-08-07T06:44:12.955Z,16.00
2022-08-07T06:46:43.290Z,16.10
2022-08-07T06:49:20.484Z,16.10
2022-08-07T06:51:50.072Z,16.20
2022-08-07T06:55:31.346Z,16.30
2022-08-07T06:57:08.329Z,16.40
2022-08-07T07:00:12.237Z,16.50
2022-08-07T07:02:53.473Z,16.50
2022-08-07T07:06:02.959Z,16.60
2022-08-07T07:08:07.104Z,16.70
2022-08-07T07:10:36.769Z,16.80
2022-08-07T07:13:41.583Z,16.90
2022-08-07T07:16:14.009Z,17.00
2022-08-07T07:18:51.789Z,17.10
2022-08-07T07:22:04.141Z,17.20
2022-08-07T07:24:17.557Z,17.30
2022-08-07T07:26:49.664Z,17.30
2022-08-07T07:29:56.807Z,17.40
2022-08-07T07:32:14.084Z,17.50
2022-08-07T07:34:45.255Z,17.50
2022-08-07T07:37:44.417Z,17.60
2022-08-07T07:40:10.205Z,17.60
2022-08-07T07:42:50.853Z,17.70
2022-08-07T07:45:22.735Z,17.80
2022-08-07T07:48:11.075Z,17.90
2022-08-07T07:50:40.223Z,18.00
2022-08-07T07:53:20.447Z,18.00
2022-08-07T07:56:00.524Z,18.10
2022-08-07T07:58:36.939Z,18.20
2022-08-07T08:02:03.251Z,18.20
2022-08-07T08:04:10.772Z,18.30
2022-08-07T08:06:50.769Z,18.40
2022-08-07T08:09:22.776Z,18.50
2022-08-07T08:12:02.506Z,18.50
2022-08-07T08:14:34.464Z,18.60
2022-08-07T08:17:56.032Z,18.70
2022-08-07T08:20:17.829Z,18.80
2022-08-07T08:23:04.651Z,18.90
2022-08-07T08:26:03.325Z,18.90
2022-08-07T08:28:39.178Z,19.00
2022-08-07T08:31:15.865Z,19.10
2022-08-07T08:33:49.694Z,19.10
2022-08-07T08:36:30.138Z,19.20
2022-08-07T08:39:02.153Z,19.30
2022-08-07T08:41:57.418Z,19.40
2022-08-07T08:44:36.256Z,19.50
2022-08-07T08:47:14.021Z,19.70
2022-08-07T08:50:09.783Z,19.70
2022-08-07T08:52:57.660Z,19.80
2022-08-07T08:55:55.063Z,19.90
2022-08-07T08:58:41.511Z,20.00
2022-08-07T09:01:18.592Z,20.20
2022-08-07T09:04:11.280Z,20.20
2022-08-07T09:07:03.424Z,20.30
2022-08-07T09:09:56.762Z,20.40
2022-08-07T09:13:00.925Z,20.50
2022-08-07T09:16:22.814Z,20.70
2022-08-07T09:19:03.583Z,20.70
2022-08-07T09:22:09.604Z,20.70
2022-08-07T09:24:59.057Z,20.90
2022-08-07T09:27:54.585Z,21.10
2022-08-07T09:30:28.374Z,21.40
2022-08-07T09:33:16.836Z,21.70
2022-08-07T09:36:11.865Z,22.00
2022-08-07T09:39:11.582Z,22.40
2022-08-07T09:42:16.977Z,22.60
2022-08-07T09:47:24.255Z,22.80
2022-08-07T09:48:15.115Z,22.90
2022-08-07T09:50:52.290Z,22.90
2022-08-07T09:53:23.255Z,23.10
2022-08-07T09:56:05.237Z,23.30
2022-08-07T09:59:13.892Z,23.40
2022-08-07T10:01:55.151Z,23.60
2022-08-07T10:04:32.848Z,23.50
2022-08-07T10:07:31.723Z,23.60
2022-08-07T10:10:21.714Z,23.80
2022-08-07T10:13:06.145Z,23.80
2022-08-07T10:16:10.055Z,23.90
2022-08-07T10:18:57.332Z,24.00
2022-08-07T10:22:15.866Z,24.30
2022-08-07T10:25:13.731Z,24.50
2022-08-07T10:27:47.562Z,24.60
2022-08-07T10:30:25.034Z,24.80
2022-08-07T10:34:06.525Z,24.90
2022-08-07T10:36:48.953Z,24.70
2022-08-07T10:39:42.149Z,24.70
2022-08-07T10:42:20.798Z,24.90
2022-08-07T10:45:13.846Z,25.00
2022-08-07T10:47:52.582Z,25.10
2022-08-07T10:50:28.201Z,25.20
2022-08-07T10:53:09.670Z,25.40
2022-08-07T10:55:50.490Z,25.50
2022-08-07T10:58:40.641Z,25.60
2022-08-07T11:01:12.238Z,25.50
2022-08-07T11:03:54.827Z,25.50
2022-08-07T11:06:38.369Z,25.60
2022-08-07T11:10:09.963Z,25.50
2022-08-07T11:12:31.693Z,25.80
2022-08-07T11:15:14.598Z,26.00
2022-08-07T11:17:53.909Z,26.10
2022-08-07T11:20:24.562Z,26.20
2022-08-07T11:23:26.238Z,26.00
2022-08-07T11:26:28.223Z,26.10
2022-08-07T11:29:01.758Z,26.20
2022-08-07T11:31:41.665Z,26.40
2022-08-07T11:34:16.530Z,26.70
2022-08-07T11:37:00.431Z,26.70
2022-08-07T11:40:00.461Z,26.60
2022-08-07T11:42:54.135Z,26.60
2022-08-07T11:45:58.760Z,26.80
2022-08-07T11:48:46.683Z,26.70
2022-08-07T11:51:44.887Z,26.70
2022-08-07T11:54:26.961Z,26.70
2022-08-07T11:57:15.923Z,26.90
2022-08-07T12:00:10.660Z,27.20
2022-08-07T12:02:58.892Z,27.30
2022-08-07T12:05:49.484Z,27.20
2022-08-07T12:08:34.850Z,27.10
2022-08-07T12:11:32.542Z,27.00
2022-08-07T12:14:11.362Z,27.00
2022-08-07T12:16:47.870Z,27.20
2022-08-07T12:20:04.828Z,27.00
2022-08-07T12:22:47.288Z,26.80
2022-08-07T12:26:05.749Z,26.90
2022-08-07T12:28:53.228Z,27.00
2022-08-07T12:32:04.004Z,27.00
2022-08-07T12:34:36.007Z,27.00
2022-08-07T12:37:08.665Z,26.90
2022-08-07T12:39:51.389Z,26.80
2022-08-07T12:42:28.013Z,26.70
2022-08-07T12:44:58.846Z,26.70
2022-08-07T12:47:50.143Z,26.70
2022-08-07T12:50:48.842Z,26.70
2022-08-07T12:53:21.922Z,26.40
2022-08-07T12:56:12.492Z,26.40
2022-08-07T12:58:46.805Z,26.40
2022-08-07T13:01:35.527Z,26.50
2022-08-07T13:04:32.609Z,26.50
2022-08-07T13:08:11.511Z,26.40
2022-08-07T13:10:37.596Z,26.40
2022-08-07T13:13:47.219Z,26.20
2022-08-07T13:16:29.395Z,26.20
2022-08-07T13:19:18.375Z,26.40
2022-08-07T13:22:19.775Z,26.40
2022-08-07T13:25:00.141Z,26.60
2022-08-07T13:28:12.552Z,26.50
2022-08-07T13:30:41.372Z,26.50
2022-08-07T13:34:30.426Z,26.70
2022-08-07T13:36:28.203Z,26.60
2022-08-07T13:39:02.717Z,26.60
2022-08-07T13:41:47.399Z,26.50
2022-08-07T13:44:26.042Z,26.60
2022-08-07T13:46:57.607Z,26.50
2022-08-07T13:50:33.871Z,26.60
2022-08-07T13:52:32.147Z,26.50
2022-08-07T13:55:11.021Z,26.40
2022-08-07T13:57:59.101Z,26.30
2022-08-07T14:00:39.486Z,26.40
2022-08-07T14:03:29.218Z,26.50
2022-08-07T14:06:07.592Z,26.60
2022-08-07T14:08:45.840Z,26.60
2022-08-07T14:11:22.765Z,26.70
2022-08-07T14:13:55.934Z,26.70
2022-08-07T14:16:31.584Z,26.70
2022-08-07T14:19:01.351Z,26.80
2022-08-07T14:22:03.221Z,26.70
2022-08-07T14:24:41.489Z,26.80
2022-08-07T14:30:11.358Z,26.80
2022-08-07T14:33:02.075Z,26.80
2022-08-07T14:35:45.607Z,26.70
2022-08-07T14:38:24.746Z,26.70
2022-08-07T14:41:02.248Z,26.60
2022-08-07T14:43:56.002Z,26.40
2022-08-07T14:46:30.564Z,26.40
2022-08-07T14:49:56.246Z,26.50
2022-08-07T14:52:03.204Z,26.60
2022-08-07T14:54:35.887Z,26.60
2022-08-07T14:57:18.708Z,26.60
2022-08-07T15:00:04.557Z,26.60
2022-08-07T15:02:34.916Z,26.70
2022-08-07T15:05:03.409Z,26.70
2022-08-07T15:07:47.308Z,26.70
2022-08-07T15:10:25.996Z,26.70
2022-08-07T15:13:00.749Z,26.60
2022-08-07T15:15:38.892Z,26.50
2022-08-07T15:18:28.180Z,26.50
2022-08-07T15:22:03.942Z,26.50
2022-08-07T15:25:16.312Z,26.50
2022-08-07T15:27:25.493Z,26.50
2022-08-07T15:30:16.382Z,26.50
2022-08-07T15:32:50.837Z,26.40
2022-08-07T15:36:04.851Z,26.30
2022-08-07T15:38:59.374Z,26.20
2022-08-07T15:42:43.429Z,26.20
2022-08-07T15:44:15.041Z,26.20
2022-08-07T15:52:30.744Z,26.10
2022-08-07T15:55:04.129Z,26.10
2022-08-07T15:57:39.922Z,26.20
2022-08-07T16:00:31.767Z,26.10
2022-08-07T16:03:04.153Z,26.00
2022-08-07T16:05:32.340Z,25.90
2022-08-07T16:08:31.419Z,25.90
2022-08-07T16:11:26.252Z,26.00
2022-08-07T16:14:25.941Z,26.00
2022-08-07T16:17:02.381Z,26.00
2022-08-07T16:19:43.014Z,26.00
2022-08-07T16:22:33.732Z,26.00
2022-08-07T16:25:54.650Z,25.90
2022-08-07T16:30:06.571Z,25.90
2022-08-07T16:31:51.922Z,25.90
2022-08-07T16:34:26.337Z,25.90
2022-08-07T16:38:06.386Z,25.80
2022-08-07T16:40:56.943Z,25.70
2022-08-07T16:44:03.953Z,25.70
2022-08-07T16:47:30.797Z,25.70
2022-08-07T16:51:13.397Z,25.70
2022-08-07T16:54:02.715Z,25.70
2022-08-07T16:56:37.239Z,25.60
2022-08-07T16:59:46.870Z,25.60
2022-08-07T17:02:51.260Z,25.60
2022-08-07T17:06:26.601Z,25.60
2022-08-07T17:09:13.756Z,25.50
2022-08-07T17:12:33.397Z,25.50
2022-08-07T17:15:20.067Z,25.50
2022-08-07T17:17:47.668Z,25.50
2022-08-07T17:20:37.795Z,25.50
2022-08-07T17:23:22.884Z,25.40
2022-08-07T17:26:23.148Z,25.40
2022-08-07T17:30:13.969Z,25.50
2022-08-07T17:32:52.301Z,25.40
2022-08-07T17:35:49.932Z,25.40
2022-08-07T17:38:35.689Z,25.40
2022-08-07T17:42:01.077Z,25.40
2022-08-07T17:44:03.057Z,25.40
2022-08-07T17:46:52.671Z,25.30
2022-08-07T17:49:44.823Z,25.30
2022-08-07T17:52:31.428Z,25.20
2022-08-07T17:55:54.744Z,25.20
2022-08-07T17:58:38.396Z,25.20
2022-08-07T18:01:21.935Z,25.20
2022-08-07T18:04:16.593Z,25.20
2022-08-07T18:07:02.856Z,25.20
2022-08-07T18:10:06.002Z,25.10
2022-08-07T18:13:02.066Z,25.10
2022-08-07T18:16:05.815Z,25.10
2022-08-07T18:21:03.066Z,25.00
2022-08-07T18:21:57.842Z,25.00
2022-08-07T18:24:34.434Z,24.90
2022-08-07T18:27:24.869Z,24.90
2022-08-07T18:30:05.928Z,24.90
2022-08-07T18:33:25.693Z,24.80
2022-08-07T18:36:13.979Z,24.80
2022-08-07T18:40:06.631Z,24.70
2022-08-07T18:42:27.712Z,24.70
2022-08-07T18:45:44.873Z,24.70
2022-08-07T18:49:23.758Z,24.50
2022-08-07T18:51:12.390Z,24.50
2022-08-07T18:54:06.181Z,24.40
2022-08-07T18:57:29.445Z,24.40
2022-08-07T19:00:34.450Z,24.30
2022-08-07T19:03:39.826Z,24.20
2022-08-07T19:06:33.522Z,24.20
2022-08-07T19:09:56.225Z,24.20
2022-08-07T19:12:26.468Z,24.00
2022-08-07T19:16:02.466Z,24.00
2022-08-07T19:18:17.303Z,23.90
2022-08-07T19:21:09.827Z,23.80
2022-08-07T19:23:58.395Z,23.80
2022-08-07T19:26:47.921Z,23.70
2022-08-07T19:31:04.680Z,23.70
2022-08-07T19:32:27.725Z,23.70
2022-08-07T19:35:03.006Z,23.70
2022-08-07T19:37:57.287Z,23.60
2022-08-07T19:40:31.904Z,23.50
2022-08-07T19:43:07.579Z,23.40
2022-08-07T19:46:07.889Z,23.40
2022-08-07T19:49:04.369Z,23.30
2022-08-07T19:51:53.126Z,23.20
2022-08-07T19:54:31.937Z,23.20
2022-08-07T19:58:02.984Z,23.20
2022-08-07T20:00:10.273Z,23.10
2022-08-07T20:02:51.863Z,23.10
2022-08-07T20:05:28.157Z,23.00
2022-08-07T20:08:06.971Z,23.00
2022-08-07T20:10:55.406Z,22.90
2022-08-07T20:13:48.496Z,22.70
2022-08-07T20:16:35.737Z,22.60
2022-08-07T20:19:05.882Z,22.40
2022-08-07T20:21:41.749Z,22.30
2022-08-07T20:24:20.557Z,22.30
2022-08-07T20:26:52.249Z,22.20
2022-08-07T20:29:48.274Z,22.10
2022-08-07T20:32:23.264Z,21.90
2022-08-07T20:34:57.409Z,21.90
2022-08-07T20:37:29.771Z,21.80
2022-08-07T20:40:05.075Z,21.70
2022-08-07T20:42:34.227Z,21.60
2022-08-07T20:45:01.580Z,21.60
2022-08-07T20:47:56.252Z,21.50
2022-08-07T20:50:20.897Z,21.50
2022-08-07T20:52:51.600Z,21.50
2022-08-07T20:55:23.589Z,21.30
2022-08-07T20:58:02.621Z,21.20
2022-08-07T21:00:52.693Z,21.10
2022-08-07T21:03:25.789Z,21.00
2022-08-07T21:06:12.439Z,20.80
2022-08-07T21:09:07.570Z,20.70
2022-08-07T21:11:51.614Z,20.50
2022-08-07T21:14:33.080Z,20.40
2022-08-07T21:18:03.234Z,20.30
2022-08-07T21:20:04.497Z,20.20
2022-08-07T21:22:39.209Z,20.10
2022-08-07T21:25:20.238Z,20.00
2022-08-07T21:28:10.440Z,19.90
2022-08-07T21:31:49.145Z,19.80
2022-08-07T21:34:32.689Z,19.70
2022-08-07T21:37:21.661Z,19.50
2022-08-07T21:40:05.356Z,19.40
2022-08-07T21:42:48.593Z,19.40
2022-08-07T21:46:03.336Z,19.20
2022-08-07T21:48:07.603Z,19.10
2022-08-07T21:51:01.953Z,19.00
2022-08-07T21:53:46.368Z,18.90
2022-08-07T21:56:39.876Z,18.90
2022-08-07T21:59:16.783Z,18.80
2022-08-07T22:02:10.888Z,18.60
2022-08-07T22:04:53.621Z,18.40
2022-08-07T22:07:31.581Z,18.30
2022-08-07T22:10:17.467Z,18.30
2022-08-07T22:12:47.675Z,18.30
2022-08-07T22:16:39.826Z,18.30
2022-08-07T22:18:41.418Z,18.20
2022-08-07T22:21:16.178Z,18.10
2022-08-07T22:24:00.311Z,18.00
2022-08-07T22:26:42.522Z,17.80
2022-08-07T22:29:33.908Z,17.80
2022-08-07T22:32:20.521Z,17.80
2022-08-07T22:34:57.815Z,17.70
2022-08-07T22:38:03.091Z,17.70
2022-08-07T22:40:56.973Z,17.60
2022-08-07T22:43:36.035Z,17.40
2022-08-07T22:47:02.808Z,17.20
2022-08-07T22:49:51.746Z,17.20
2022-08-07T22:52:58.839Z,17.00
2022-08-07T22:56:04.222Z,17.00
2022-08-07T22:58:41.362Z,17.00
2022-08-07T23:01:49.986Z,17.00
2022-08-07T23:04:20.470Z,17.00
2022-08-07T23:07:40.387Z,16.90
2022-08-07T23:10:38.203Z,16.80
2022-08-07T23:13:29.865Z,16.70
2022-08-07T23:16:46.803Z,16.60
2022-08-07T23:20:14.779Z,16.50
2022-08-07T23:22:47.350Z,16.50
2022-08-07T23:25:20.872Z,16.50
2022-08-07T23:28:21.758Z,16.50
2022-08-07T23:31:43.030Z,16.40
2022-08-07T23:34:38.168Z,16.30
2022-08-07T23:38:01.309Z,16.20
2022-08-07T23:40:47.047Z,16.10
2022-08-07T23:43:18.912Z,16.00
2022-08-07T23:46:13.817Z,15.90
2022-08-07T23:48:59.010Z,15.90
2022-08-07T23:53:05.899Z,16.00
2022-08-07T23:54:46.314Z,15.90
2022-08-07T23:57:41.505Z,15.70
